sensor_id;sensor_type;location;lat;lon;timestamp;temperature;humidity
4922;DHT22;16625;53.624;10.106;2022-12-07T06:48:05;0.20;99.90
4922;DHT22;16625;53.624;10.106;2022-12-07T06:50:32;1.00;99.90
4922;DHT22;16625;53.624;10.106;2022-12-07T06:52:59;0.40;99.90
4922;DHT22;16625;53.624;10.106;2022-12-07T06:55:26;0.40;99.90
4922;DHT22;16625;53.624;10.106;2022-12-07T06:57:53;0.70;99.90
4922;DHT22;16625;53.624;10.106;2022-12-07T07:00:20;0.50;99.90
4922;DHT22;16625;53.624;10.106;2022-12-07T07:02:47;0.40;99.90
4922;DHT22;16625;53.624;10.106;2022-12-07T07:05:15;0.40;99.90
4922;DHT22;16625;53.624;10.106;2022-12-07T07:07:42;0.50;99.90
4922;DHT22;16625;53.624;10.106;2022-12-07T07:10:10;0.50;99.90
4922;DHT22;16625;53.624;10.106;2022-12-07T07:12:36;0.60;99.90
4922;DHT22;16625;53.624;10.106;2022-12-07T07:15:04;0.70;99.90
4922;DHT22;16625;53.624;10.106;2022-12-07T07:17:31;0.80;99.90
4922;DHT22;16625;53.624;10.106;2022-12-07T07:19:59;0.90;99.90
4922;DHT22;16625;53.624;10.106;2022-12-07T07:22:27;0.90;99.90
4922;DHT22;16625;53.624;10.106;2022-12-07T07:24:54;0.90;99.90
4922;DHT22;16625;53.624;10.106;2022-12-07T07:27:20;0.90;99.90
4922;DHT22;16625;53.624;10.106;2022-12-07T07:29:47;0.80;99.90
4922;DHT22;16625;53.624;10.106;2022-12-07T07:32:14;0.80;99.90
4922;DHT22;16625;53.624;10.106;2022-12-07T07:34:41;0.90;99.90
4922;DHT22;16625;53.624;10.106;2022-12-07T07:37:08;0.90;99.90
4922;DHT22;16625;53.624;10.106;2022-12-07T07:39:37;0.90;99.90
4922;DHT22;16625;53.624;10.106;2022-12-07T07:42:05;0.90;99.90
4922;DHT22;16625;53.624;10.106;2022-12-07T07:44:33;0.90;99.90
4922;DHT22;16625;53.624;10.106;2022-12-07T07:47:00;0.90;99.90
4922;DHT22;16625;53.624;10.106;2022-12-07T07:49:29;0.90;99.90
4922;DHT22;16625;53.624;10.106;2022-12-07T07:51:56;1.00;99.90
4922;DHT22;16625;53.624;10.106;2022-12-07T07:54:22;1.00;99.90
4922;DHT22;16625;53.624;10.106;2022-12-07T07:56:52;1.00;99.90
4922;DHT22;16625;53.624;10.106;2022-12-07T07:59:19;1.10;99.90
4922;DHT22;16625;53.624;10.106;2022-12-07T08:01:45;1.10;99.90
4922;DHT22;16625;53.624;10.106;2022-12-07T08:04:12;1.10;99.90
4922;DHT22;16625;53.624;10.106;2022-12-07T08:06:39;1.20;99.90
4922;DHT22;16625;53.624;10.106;2022-12-07T08:09:07;1.30;99.90
4922;DHT22;16625;53.624;10.106;2022-12-07T08:11:34;2.20;99.90
4922;DHT22;16625;53.624;10.106;2022-12-07T08:14:03;1.80;99.90
4922;DHT22;16625;53.624;10.106;2022-12-07T08:16:30;1.30;99.90
4922;DHT22;16625;53.624;10.106;2022-12-07T08:18:57;1.30;99.90
4922;DHT22;16625;53.624;10.106;2022-12-07T08:21:23;1.30;99.90
4922;DHT22;16625;53.624;10.106;2022-12-07T08:23:50;2.00;99.90
4922;DHT22;16625;53.624;10.106;2022-12-07T08:26:17;1.40;99.90
4922;DHT22;16625;53.624;10.106;2022-12-07T08:28:44;1.40;99.90
4922;DHT22;16625;53.624;10.106;2022-12-07T08:31:15;1.50;99.90
4922;DHT22;16625;53.624;10.106;2022-12-07T08:33:44;1.50;99.90
4922;DHT22;16625;53.624;10.106;2022-12-07T08:36:11;1.60;99.90
4922;DHT22;16625;53.624;10.106;2022-12-07T08:38:40;2.60;99.90
4922;DHT22;16625;53.624;10.106;2022-12-07T08:41:08;1.70;99.90
4922;DHT22;16625;53.624;10.106;2022-12-07T08:43:35;1.70;99.90
4922;DHT22;16625;53.624;10.106;2022-12-07T08:46:09;2.80;99.90
4922;DHT22;16625;53.624;10.106;2022-12-07T08:48:42;1.80;99.90
4922;DHT22;16625;53.624;10.106;2022-12-07T08:51:11;1.50;99.90
4922;DHT22;16625;53.624;10.106;2022-12-07T08:54:12;1.90;99.90
4922;DHT22;16625;53.624;10.106;2022-12-07T09:00:23;1.90;99.90
4922;DHT22;16625;53.624;10.106;2022-12-07T09:02:51;2.00;99.90
4922;DHT22;16625;53.624;10.106;2022-12-07T09:05:20;1.50;99.90
4922;DHT22;16625;53.624;10.106;2022-12-07T09:07:56;2.10;99.90
4922;DHT22;16625;53.624;10.106;2022-12-07T09:10:40;2.10;99.90
4922;DHT22;16625;53.624;10.106;2022-12-07T09:13:07;2.90;99.90
4922;DHT22;16625;53.624;10.106;2022-12-07T09:15:40;1.90;99.90
4922;DHT22;16625;53.624;10.106;2022-12-07T09:18:21;1.60;99.90
4922;DHT22;16625;53.624;10.106;2022-12-07T09:20:52;3.10;99.90
4922;DHT22;16625;53.624;10.106;2022-12-07T09:23:19;2.90;99.90
4922;DHT22;16625;53.624;10.106;2022-12-07T09:25:47;2.50;99.90
4922;DHT22;16625;53.624;10.106;2022-12-07T09:28:14;3.50;99.90
4922;DHT22;16625;53.624;10.106;2022-12-07T09:30:45;4.00;99.90
4922;DHT22;16625;53.624;10.106;2022-12-07T09:33:12;2.70;99.90
4922;DHT22;16625;53.624;10.106;2022-12-07T09:35:44;2.80;99.90
4922;DHT22;16625;53.624;10.106;2022-12-07T09:38:19;3.30;99.90
4922;DHT22;16625;53.624;10.106;2022-12-07T09:41:08;3.00;99.90
4922;DHT22;16625;53.624;10.106;2022-12-07T09:43:36;3.00;99.90
4922;DHT22;16625;53.624;10.106;2022-12-07T09:46:05;3.00;99.90
4922;DHT22;16625;53.624;10.106;2022-12-07T09:48:35;2.90;99.90
4922;DHT22;16625;53.624;10.106;2022-12-07T09:51:18;4.30;99.90
4922;DHT22;16625;53.624;10.106;2022-12-07T09:53:48;3.80;99.90
4922;DHT22;16625;53.624;10.106;2022-12-07T09:56:18;3.90;99.90
4922;DHT22;16625;53.624;10.106;2022-12-07T09:58:49;3.30;99.90
4922;DHT22;16625;53.624;10.106;2022-12-07T10:01:20;3.90;99.90
4922;DHT22;16625;53.624;10.106;2022-12-07T10:03:50;4.20;99.90
4922;DHT22;16625;53.624;10.106;2022-12-07T10:06:23;3.40;99.90
4922;DHT22;16625;53.624;10.106;2022-12-07T10:08:52;3.40;99.90
4922;DHT22;16625;53.624;10.106;2022-12-07T10:11:19;3.60;99.90
4922;DHT22;16625;53.624;10.106;2022-12-07T10:13:52;3.60;99.90
4922;DHT22;16625;53.624;10.106;2022-12-07T10:16:37;3.50;99.90
4922;DHT22;16625;53.624;10.106;2022-12-07T10:19:34;4.80;99.90
4922;DHT22;16625;53.624;10.106;2022-12-07T10:22:11;3.90;99.90
4922;DHT22;16625;53.624;10.106;2022-12-07T10:24:47;4.00;99.90
4922;DHT22;16625;53.624;10.106;2022-12-07T10:27:32;4.30;99.90
4922;DHT22;16625;53.624;10.106;2022-12-07T10:30:12;3.60;99.90
4922;DHT22;16625;53.624;10.106;2022-12-07T10:32:42;3.80;99.90
4922;DHT22;16625;53.624;10.106;2022-12-07T10:35:21;3.80;99.90
4922;DHT22;16625;53.624;10.106;2022-12-07T10:37:50;3.90;99.90
4922;DHT22;16625;53.624;10.106;2022-12-07T10:40:29;3.90;99.90
4922;DHT22;16625;53.624;10.106;2022-12-07T10:43:18;4.20;99.90
4922;DHT22;16625;53.624;10.106;2022-12-07T10:46:09;4.70;99.90
4922;DHT22;16625;53.624;10.106;2022-12-07T10:48:43;3.90;99.90
4922;DHT22;16625;53.624;10.106;2022-12-07T10:51:19;3.90;99.90
4922;DHT22;16625;53.624;10.106;2022-12-07T10:53:59;4.50;99.90
4922;DHT22;16625;53.624;10.106;2022-12-07T10:57:01;4.10;99.90
4922;DHT22;16625;53.624;10.106;2022-12-07T10:59:47;3.80;99.90
4922;DHT22;16625;53.624;10.106;2022-12-07T11:02:41;3.90;99.90
4922;DHT22;16625;53.624;10.106;2022-12-07T11:05:17;4.00;99.90
4922;DHT22;16625;53.624;10.106;2022-12-07T11:07:53;4.10;99.90
4922;DHT22;16625;53.624;10.106;2022-12-07T11:10:27;4.90;99.90
4922;DHT22;16625;53.624;10.106;2022-12-07T11:16:16;4.10;99.90
4922;DHT22;16625;53.624;10.106;2022-12-07T11:18:56;4.80;99.90
4922;DHT22;16625;53.624;10.106;2022-12-07T11:21:30;5.40;99.90
4922;DHT22;16625;53.624;10.106;2022-12-07T11:24:05;4.70;99.90
4922;DHT22;16625;53.624;10.106;2022-12-07T11:26:50;4.10;99.90
4922;DHT22;16625;53.624;10.106;2022-12-07T11:29:34;4.10;99.90
4922;DHT22;16625;53.624;10.106;2022-12-07T11:32:13;3.90;99.90
4922;DHT22;16625;53.624;10.106;2022-12-07T11:34:52;5.10;99.90
4922;DHT22;16625;53.624;10.106;2022-12-07T11:37:32;4.00;99.90
4922;DHT22;16625;53.624;10.106;2022-12-07T11:40:03;4.00;94.60
4922;DHT22;16625;53.624;10.106;2022-12-07T11:42:35;5.30;90.70
4922;DHT22;16625;53.624;10.106;2022-12-07T11:45:13;4.00;75.00
4922;DHT22;16625;53.624;10.106;2022-12-07T11:47:47;4.20;93.40
4922;DHT22;16625;53.624;10.106;2022-12-07T11:50:25;4.20;99.90
4922;DHT22;16625;53.624;10.106;2022-12-07T11:52:58;4.20;1.00
4922;DHT22;16625;53.624;10.106;2022-12-07T11:55:37;5.50;1.00
4922;DHT22;16625;53.624;10.106;2022-12-07T11:58:19;5.10;1.00
4922;DHT22;16625;53.624;10.106;2022-12-07T12:01:13;4.40;1.00
4922;DHT22;16625;53.624;10.106;2022-12-07T12:03:48;4.70;99.90
4922;DHT22;16625;53.624;10.106;2022-12-07T12:06:17;4.40;99.90
4922;DHT22;16625;53.624;10.106;2022-12-07T12:08:48;4.50;99.90
4922;DHT22;16625;53.624;10.106;2022-12-07T12:11:30;5.80;99.90
4922;DHT22;16625;53.624;10.106;2022-12-07T12:14:16;4.50;1.00
4922;DHT22;16625;53.624;10.106;2022-12-07T12:17:20;4.40;99.90
4922;DHT22;16625;53.624;10.106;2022-12-07T12:20:00;4.40;99.90
4922;DHT22;16625;53.624;10.106;2022-12-07T12:22:35;5.20;1.00
4922;DHT22;16625;53.624;10.106;2022-12-07T12:25:06;4.50;1.00
4922;DHT22;16625;53.624;10.106;2022-12-07T12:27:37;4.30;99.90
4922;DHT22;16625;53.624;10.106;2022-12-07T12:30:22;4.40;1.00
4922;DHT22;16625;53.624;10.106;2022-12-07T12:32:52;4.30;1.00
4922;DHT22;16625;53.624;10.106;2022-12-07T12:35:29;4.40;99.90
4922;DHT22;16625;53.624;10.106;2022-12-07T12:40:57;4.60;99.90
4922;DHT22;16625;53.624;10.106;2022-12-07T12:43:43;4.60;99.90
4922;DHT22;16625;53.624;10.106;2022-12-07T12:53:01;4.50;99.90
4922;DHT22;16625;53.624;10.106;2022-12-07T12:55:54;4.50;99.90
4922;DHT22;16625;53.624;10.106;2022-12-07T12:58:38;4.60;99.90
4922;DHT22;16625;53.624;10.106;2022-12-07T13:01:38;4.60;47.40
4922;DHT22;16625;53.624;10.106;2022-12-07T13:04:24;4.50;1.00
4922;DHT22;16625;53.624;10.106;2022-12-07T13:06:53;4.50;1.00
4922;DHT22;16625;53.624;10.106;2022-12-07T13:09:24;4.40;1.00
4922;DHT22;16625;53.624;10.106;2022-12-07T13:11:58;4.50;1.00
4922;DHT22;16625;53.624;10.106;2022-12-07T13:14:55;4.50;1.00
4922;DHT22;16625;53.624;10.106;2022-12-07T13:17:55;4.50;1.00
4922;DHT22;16625;53.624;10.106;2022-12-07T13:20:43;4.50;1.00
4922;DHT22;16625;53.624;10.106;2022-12-07T13:23:10;4.60;1.00
4922;DHT22;16625;53.624;10.106;2022-12-07T13:25:47;4.60;99.90
4922;DHT22;16625;53.624;10.106;2022-12-07T13:28:17;5.00;99.90
4922;DHT22;16625;53.624;10.106;2022-12-07T13:31:04;4.60;99.90
4922;DHT22;16625;53.624;10.106;2022-12-07T13:33:36;4.60;99.90
4922;DHT22;16625;53.624;10.106;2022-12-07T13:36:03;4.70;99.90
4922;DHT22;16625;53.624;10.106;2022-12-07T13:38:32;4.60;99.90
4922;DHT22;16625;53.624;10.106;2022-12-07T13:41:12;4.70;99.90
4922;DHT22;16625;53.624;10.106;2022-12-07T13:43:44;4.60;99.90
4922;DHT22;16625;53.624;10.106;2022-12-07T13:46:11;4.60;99.90
4922;DHT22;16625;53.624;10.106;2022-12-07T13:48:45;4.60;99.90
4922;DHT22;16625;53.624;10.106;2022-12-07T13:51:18;5.20;99.90
4922;DHT22;16625;53.624;10.106;2022-12-07T13:53:47;4.50;99.90
4922;DHT22;16625;53.624;10.106;2022-12-07T13:56:16;4.40;99.90
4922;DHT22;16625;53.624;10.106;2022-12-07T13:58:43;4.20;66.10
4922;DHT22;16625;53.624;10.106;2022-12-07T14:01:10;4.20;41.60
4922;DHT22;16625;53.624;10.106;2022-12-07T14:03:39;4.10;14.00
4922;DHT22;16625;53.624;10.106;2022-12-07T14:06:19;4.00;8.10
4922;DHT22;16625;53.624;10.106;2022-12-07T14:08:47;4.00;1.00
4922;DHT22;16625;53.624;10.106;2022-12-07T14:11:19;4.80;1.00
4922;DHT22;16625;53.624;10.106;2022-12-07T14:13:57;3.90;1.00
4922;DHT22;16625;53.624;10.106;2022-12-07T14:16:27;3.80;1.00
4922;DHT22;16625;53.624;10.106;2022-12-07T14:19:45;4.80;1.00
4922;DHT22;16625;53.624;10.106;2022-12-07T14:22:29;3.70;1.00
4922;DHT22;16625;53.624;10.106;2022-12-07T14:25:02;3.70;1.00
4922;DHT22;16625;53.624;10.106;2022-12-07T14:27:33;3.60;1.00
4922;DHT22;16625;53.624;10.106;2022-12-07T14:30:02;3.60;1.00
4922;DHT22;16625;53.624;10.106;2022-12-07T14:32:30;4.60;1.00
4922;DHT22;16625;53.624;10.106;2022-12-07T14:35:03;3.30;1.00
4922;DHT22;16625;53.624;10.106;2022-12-07T14:37:30;3.30;1.00
4922;DHT22;16625;53.624;10.106;2022-12-07T14:39:57;3.20;1.00
4922;DHT22;16625;53.624;10.106;2022-12-07T14:42:27;3.90;1.00
4922;DHT22;16625;53.624;10.106;2022-12-07T14:44:57;3.20;1.00
4922;DHT22;16625;53.624;10.106;2022-12-07T14:47:24;3.90;1.00
4922;DHT22;16625;53.624;10.106;2022-12-07T14:49:53;3.80;1.00
4922;DHT22;16625;53.624;10.106;2022-12-07T14:52:21;3.10;1.00
4922;DHT22;16625;53.624;10.106;2022-12-07T14:54:49;2.90;1.00
4922;DHT22;16625;53.624;10.106;2022-12-07T14:57:16;2.90;1.00
4922;DHT22;16625;53.624;10.106;2022-12-07T14:59:43;2.30;1.00
4922;DHT22;16625;53.624;10.106;2022-12-07T15:02:15;3.70;1.00
4922;DHT22;16625;53.624;10.106;2022-12-07T15:04:42;2.60;1.00
4922;DHT22;16625;53.624;10.106;2022-12-07T15:07:14;3.20;1.00
4922;DHT22;16625;53.624;10.106;2022-12-07T15:09:42;2.60;1.00
4922;DHT22;16625;53.624;10.106;2022-12-07T15:12:09;2.30;6.20
4922;DHT22;16625;53.624;10.106;2022-12-07T15:14:36;2.30;24.90
4922;DHT22;16625;53.624;10.106;2022-12-07T15:17:03;3.10;6.60
4922;DHT22;16625;53.624;10.106;2022-12-07T15:19:31;2.30;1.00
4922;DHT22;16625;53.624;10.106;2022-12-07T15:27:08;2.10;1.30
4922;DHT22;16625;53.624;10.106;2022-12-07T15:29:35;2.90;1.00
4922;DHT22;16625;53.624;10.106;2022-12-07T15:32:02;2.00;1.00
4922;DHT22;16625;53.624;10.106;2022-12-07T15:34:30;2.10;1.00
4922;DHT22;16625;53.624;10.106;2022-12-07T15:36:57;3.10;1.00
4922;DHT22;16625;53.624;10.106;2022-12-07T15:39:24;1.90;1.00
4922;DHT22;16625;53.624;10.106;2022-12-07T15:41:51;2.80;2.80
4922;DHT22;16625;53.624;10.106;2022-12-07T15:44:17;1.50;36.80
4922;DHT22;16625;53.624;10.106;2022-12-07T15:47:02;1.30;99.90
4922;DHT22;16625;53.624;10.106;2022-12-07T15:49:31;1.20;99.90
4922;DHT22;16625;53.624;10.106;2022-12-07T15:51:58;1.20;99.90
4922;DHT22;16625;53.624;10.106;2022-12-07T15:54:27;1.40;99.90
4922;DHT22;16625;53.624;10.106;2022-12-07T15:56:54;1.20;99.90
4922;DHT22;16625;53.624;10.106;2022-12-07T15:59:22;1.10;99.90
4922;DHT22;16625;53.624;10.106;2022-12-07T16:01:49;0.70;99.90
4922;DHT22;16625;53.624;10.106;2022-12-07T16:04:16;1.30;99.90
4922;DHT22;16625;53.624;10.106;2022-12-07T16:06:55;1.00;99.90
4922;DHT22;16625;53.624;10.106;2022-12-07T16:09:21;1.20;99.90
4922;DHT22;16625;53.624;10.106;2022-12-07T16:11:48;0.40;1.00
4922;DHT22;16625;53.624;10.106;2022-12-07T16:14:21;0.50;1.00
4922;DHT22;16625;53.624;10.106;2022-12-07T16:16:48;0.50;1.00
4922;DHT22;16625;53.624;10.106;2022-12-07T16:19:15;0.50;1.00
4922;DHT22;16625;53.624;10.106;2022-12-07T16:21:42;0.40;1.00
4922;DHT22;16625;53.624;10.106;2022-12-07T16:24:10;0.30;1.00
4922;DHT22;16625;53.624;10.106;2022-12-07T16:26:38;0.30;1.00
4922;DHT22;16625;53.624;10.106;2022-12-07T16:29:05;0.30;1.00
4922;DHT22;16625;53.624;10.106;2022-12-07T16:31:31;0.50;1.00
4922;DHT22;16625;53.624;10.106;2022-12-07T16:33:59;0.40;1.00
4922;DHT22;16625;53.624;10.106;2022-12-07T16:36:26;0.30;1.00
4922;DHT22;16625;53.624;10.106;2022-12-07T16:38:53;0.20;1.00
4922;DHT22;16625;53.624;10.106;2022-12-07T16:41:24;1.60;1.00
4922;DHT22;16625;53.624;10.106;2022-12-07T16:43:51;0.30;1.00
4922;DHT22;16625;53.624;10.106;2022-12-07T16:46:18;0.20;1.00
4922;DHT22;16625;53.624;10.106;2022-12-07T16:48:45;0.40;1.00
4922;DHT22;16625;53.624;10.106;2022-12-07T16:51:13;0.40;1.00
4922;DHT22;16625;53.624;10.106;2022-12-07T16:57:05;-0.80;1.00
4922;DHT22;16625;53.624;10.106;2022-12-07T16:59:32;0.20;1.00
4922;DHT22;16625;53.624;10.106;2022-12-07T17:01:59;0.10;1.00
4922;DHT22;16625;53.624;10.106;2022-12-07T17:04:26;0.20;1.00
4922;DHT22;16625;53.624;10.106;2022-12-07T17:06:53;0.10;1.00
4922;DHT22;16625;53.624;10.106;2022-12-07T17:09:19;0.00;1.00
4922;DHT22;16625;53.624;10.106;2022-12-07T17:11:46;0.00;1.00
4922;DHT22;16625;53.624;10.106;2022-12-07T17:14:15;1.10;1.00
4922;DHT22;16625;53.624;10.106;2022-12-07T17:16:59;-0.10;1.00
4922;DHT22;16625;53.624;10.106;2022-12-07T17:19:26;-0.10;1.00
4922;DHT22;16625;53.624;10.106;2022-12-07T17:21:53;-0.10;1.00
4922;DHT22;16625;53.624;10.106;2022-12-07T17:24:20;-0.10;48.90
4922;DHT22;16625;53.624;10.106;2022-12-07T17:26:47;-0.20;80.80
4922;DHT22;16625;53.624;10.106;2022-12-07T17:29:16;-0.30;99.90
4922;DHT22;16625;53.624;10.106;2022-12-07T17:31:44;-0.20;99.90
4922;DHT22;16625;53.624;10.106;2022-12-07T17:34:13;0.20;99.90
4922;DHT22;16625;53.624;10.106;2022-12-07T17:36:40;-0.20;99.90
4922;DHT22;16625;53.624;10.106;2022-12-07T17:39:07;-0.30;99.90
4922;DHT22;16625;53.624;10.106;2022-12-07T17:41:36;-0.30;99.90
4922;DHT22;16625;53.624;10.106;2022-12-07T17:44:23;-0.40;99.90
4922;DHT22;16625;53.624;10.106;2022-12-07T17:46:52;0.20;99.90
4922;DHT22;16625;53.624;10.106;2022-12-07T17:49:20;-0.40;99.90
4922;DHT22;16625;53.624;10.106;2022-12-07T17:51:47;-0.30;99.90
4922;DHT22;16625;53.624;10.106;2022-12-07T17:54:31;-0.30;99.90
4922;DHT22;16625;53.624;10.106;2022-12-07T17:56:58;0.00;99.90
4922;DHT22;16625;53.624;10.106;2022-12-07T17:59:26;-0.30;99.90
4922;DHT22;16625;53.624;10.106;2022-12-07T18:01:53;-0.40;99.90
4922;DHT22;16625;53.624;10.106;2022-12-07T18:04:20;0.10;99.90
4922;DHT22;16625;53.624;10.106;2022-12-07T18:06:47;0.40;99.90
4922;DHT22;16625;53.624;10.106;2022-12-07T18:09:14;-0.40;1.00
4922;DHT22;16625;53.624;10.106;2022-12-07T18:11:41;-0.40;1.00
4922;DHT22;16625;53.624;10.106;2022-12-07T18:14:07;-0.30;1.00
4922;DHT22;16625;53.624;10.106;2022-12-07T18:16:36;1.00;1.00
4922;DHT22;16625;53.624;10.106;2022-12-07T18:19:04;-0.40;1.00
4922;DHT22;16625;53.624;10.106;2022-12-07T18:21:32;-0.30;1.00
4922;DHT22;16625;53.624;10.106;2022-12-07T18:24:01;-0.30;1.00
4922;DHT22;16625;53.624;10.106;2022-12-07T18:26:30;0.90;1.00
4922;DHT22;16625;53.624;10.106;2022-12-07T18:28:58;-0.10;13.90
4922;DHT22;16625;53.624;10.106;2022-12-07T18:31:25;-0.30;99.90
4922;DHT22;16625;53.624;10.106;2022-12-07T18:33:54;-0.40;99.90
4922;DHT22;16625;53.624;10.106;2022-12-07T18:36:21;-0.40;99.90
4922;DHT22;16625;53.624;10.106;2022-12-07T18:38:48;0.40;99.90
4922;DHT22;16625;53.624;10.106;2022-12-07T18:41:15;-0.70;99.90
4922;DHT22;16625;53.624;10.106;2022-12-07T18:43:42;-0.50;99.90
4922;DHT22;16625;53.624;10.106;2022-12-07T18:46:10;-0.50;99.90
4922;DHT22;16625;53.624;10.106;2022-12-07T18:55:24;-0.50;99.90
4922;DHT22;16625;53.624;10.106;2022-12-07T18:57:51;-0.50;1.00
4922;DHT22;16625;53.624;10.106;2022-12-07T19:00:19;-0.50;1.00
4922;DHT22;16625;53.624;10.106;2022-12-07T19:02:48;-0.50;1.00
4922;DHT22;16625;53.624;10.106;2022-12-07T19:05:16;-0.70;1.00
4922;DHT22;16625;53.624;10.106;2022-12-07T19:07:45;0.30;1.00
4922;DHT22;16625;53.624;10.106;2022-12-07T19:10:19;0.40;30.00
4922;DHT22;16625;53.624;10.106;2022-12-07T19:12:48;-0.70;71.20
4922;DHT22;16625;53.624;10.106;2022-12-07T19:15:15;-0.70;99.90
4922;DHT22;16625;53.624;10.106;2022-12-07T19:17:43;-0.10;99.90
4922;DHT22;16625;53.624;10.106;2022-12-07T19:20:13;0.30;99.90
4922;DHT22;16625;53.624;10.106;2022-12-07T19:22:41;-0.70;99.90
4922;DHT22;16625;53.624;10.106;2022-12-07T19:25:08;-0.70;99.90
4922;DHT22;16625;53.624;10.106;2022-12-07T19:27:36;-0.70;99.90
4922;DHT22;16625;53.624;10.106;2022-12-07T19:30:06;0.10;99.90
4922;DHT22;16625;53.624;10.106;2022-12-07T19:35:41;-0.70;99.90
4922;DHT22;16625;53.624;10.106;2022-12-07T19:38:22;-0.60;99.90
4922;DHT22;16625;53.624;10.106;2022-12-07T19:40:49;0.10;99.90
4922;DHT22;16625;53.624;10.106;2022-12-07T19:43:17;-0.60;99.90
4922;DHT22;16625;53.624;10.106;2022-12-07T19:45:46;-0.60;99.90
4922;DHT22;16625;53.624;10.106;2022-12-07T19:48:15;-0.50;99.90
4922;DHT22;16625;53.624;10.106;2022-12-07T19:50:43;0.00;99.90
4922;DHT22;16625;53.624;10.106;2022-12-07T19:53:10;-0.60;99.90
4922;DHT22;16625;53.624;10.106;2022-12-07T19:55:38;-1.00;99.90
4922;DHT22;16625;53.624;10.106;2022-12-07T19:58:08;-0.80;99.90
4922;DHT22;16625;53.624;10.106;2022-12-07T20:00:35;-0.80;99.90
4922;DHT22;16625;53.624;10.106;2022-12-07T20:03:05;0.00;1.00
4922;DHT22;16625;53.624;10.106;2022-12-07T20:05:33;-0.50;1.00
4922;DHT22;16625;53.624;10.106;2022-12-07T20:08:01;-1.10;1.00
4922;DHT22;16625;53.624;10.106;2022-12-07T20:10:28;-1.10;71.10
4922;DHT22;16625;53.624;10.106;2022-12-07T20:12:59;-1.20;99.90
4922;DHT22;16625;53.624;10.106;2022-12-07T20:15:44;-1.20;99.90
4922;DHT22;16625;53.624;10.106;2022-12-07T20:18:12;-1.30;1.00
4922;DHT22;16625;53.624;10.106;2022-12-07T20:20:40;-1.40;1.00
4922;DHT22;16625;53.624;10.106;2022-12-07T20:23:08;-0.80;99.90
4922;DHT22;16625;53.624;10.106;2022-12-07T20:25:35;-2.00;99.90
4922;DHT22;16625;53.624;10.106;2022-12-07T20:28:03;-1.50;1.00
4922;DHT22;16625;53.624;10.106;2022-12-07T20:30:30;-1.40;99.90
4922;DHT22;16625;53.624;10.106;2022-12-07T20:32:58;-0.90;99.90
4922;DHT22;16625;53.624;10.106;2022-12-07T20:35:28;-0.80;1.00
4922;DHT22;16625;53.624;10.106;2022-12-07T20:37:55;-1.30;24.30
4922;DHT22;16625;53.624;10.106;2022-12-07T20:40:24;-1.30;94.80
4922;DHT22;16625;53.624;10.106;2022-12-07T20:42:52;-1.20;99.90
4922;DHT22;16625;53.624;10.106;2022-12-07T20:45:20;-1.20;99.90
4922;DHT22;16625;53.624;10.106;2022-12-07T20:47:48;-0.50;99.90
4922;DHT22;16625;53.624;10.106;2022-12-07T20:50:16;-1.20;99.90
4922;DHT22;16625;53.624;10.106;2022-12-07T20:52:45;-0.20;99.90
4922;DHT22;16625;53.624;10.106;2022-12-07T20:55:12;0.20;99.90
4922;DHT22;16625;53.624;10.106;2022-12-07T20:57:40;-1.80;99.90
4922;DHT22;16625;53.624;10.106;2022-12-07T21:00:09;-0.60;99.90
4922;DHT22;16625;53.624;10.106;2022-12-07T21:02:38;-1.10;99.90
4922;DHT22;16625;53.624;10.106;2022-12-07T21:05:05;-0.30;1.00
4922;DHT22;16625;53.624;10.106;2022-12-07T21:07:33;-0.90;1.00
4922;DHT22;16625;53.624;10.106;2022-12-07T21:10:03;0.10;1.00
4922;DHT22;16625;53.624;10.106;2022-12-07T21:12:30;-1.30;1.00
4922;DHT22;16625;53.624;10.106;2022-12-07T21:14:58;-0.70;1.00
4922;DHT22;16625;53.624;10.106;2022-12-07T21:17:26;-0.50;1.00
4922;DHT22;16625;53.624;10.106;2022-12-07T21:19:54;-0.20;1.00
4922;DHT22;16625;53.624;10.106;2022-12-07T21:22:23;0.60;1.00
4922;DHT22;16625;53.624;10.106;2022-12-07T21:24:50;0.60;99.90
4922;DHT22;16625;53.624;10.106;2022-12-07T21:27:19;-0.50;99.90
4922;DHT22;16625;53.624;10.106;2022-12-07T21:29:47;0.40;99.90
4922;DHT22;16625;53.624;10.106;2022-12-07T21:32:17;-0.80;99.90
4922;DHT22;16625;53.624;10.106;2022-12-07T21:39:52;-0.20;1.00
4922;DHT22;16625;53.624;10.106;2022-12-07T21:51:41;-0.70;99.90
4922;DHT22;16625;53.624;10.106;2022-12-07T21:54:22;0.00;99.90
4922;DHT22;16625;53.624;10.106;2022-12-07T21:56:52;0.90;99.90
4922;DHT22;16625;53.624;10.106;2022-12-07T21:59:24;1.40;99.90
4922;DHT22;16625;53.624;10.106;2022-12-07T22:01:52;0.80;99.90
4922;DHT22;16625;53.624;10.106;2022-12-07T22:04:25;1.10;99.90
4922;DHT22;16625;53.624;10.106;2022-12-07T22:10:09;1.10;99.90
4922;DHT22;16625;53.624;10.106;2022-12-07T22:12:53;0.00;99.90
4922;DHT22;16625;53.624;10.106;2022-12-07T22:15:40;0.30;1.00
4922;DHT22;16625;53.624;10.106;2022-12-07T22:18:15;0.70;1.00
4922;DHT22;16625;53.624;10.106;2022-12-07T22:20:45;-0.40;1.00
4922;DHT22;16625;53.624;10.106;2022-12-07T22:23:31;0.40;1.00
4922;DHT22;16625;53.624;10.106;2022-12-07T22:26:18;1.00;1.00
4922;DHT22;16625;53.624;10.106;2022-12-07T22:28:46;1.20;1.00
4922;DHT22;16625;53.624;10.106;2022-12-07T23:08:15;0.90;99.90
4922;DHT22;16625;53.624;10.106;2022-12-07T23:10:43;0.80;99.90
4922;DHT22;16625;53.624;10.106;2022-12-07T23:13:11;1.90;99.90
4922;DHT22;16625;53.624;10.106;2022-12-07T23:15:55;0.80;99.90
4922;DHT22;16625;53.624;10.106;2022-12-07T23:18:22;1.60;99.90
4922;DHT22;16625;53.624;10.106;2022-12-07T23:20:49;2.00;99.90
4922;DHT22;16625;53.624;10.106;2022-12-07T23:23:18;-0.40;99.90
4922;DHT22;16625;53.624;10.106;2022-12-07T23:25:45;1.10;99.90
4922;DHT22;16625;53.624;10.106;2022-12-07T23:28:11;0.90;99.90
4922;DHT22;16625;53.624;10.106;2022-12-07T23:30:38;0.80;99.90
4922;DHT22;16625;53.624;10.106;2022-12-07T23:33:05;0.80;99.90
4922;DHT22;16625;53.624;10.106;2022-12-07T23:35:32;0.80;99.90
4922;DHT22;16625;53.624;10.106;2022-12-07T23:37:59;0.80;99.90
4922;DHT22;16625;53.624;10.106;2022-12-07T23:40:27;1.40;99.90
4922;DHT22;16625;53.624;10.106;2022-12-07T23:42:54;0.80;99.90
4922;DHT22;16625;53.624;10.106;2022-12-07T23:45:21;0.80;99.90
4922;DHT22;16625;53.624;10.106;2022-12-07T23:47:48;0.80;99.90
4922;DHT22;16625;53.624;10.106;2022-12-07T23:50:15;0.80;99.90
4922;DHT22;16625;53.624;10.106;2022-12-07T23:52:42;0.80;99.90
4922;DHT22;16625;53.624;10.106;2022-12-07T23:55:09;0.70;99.90
4922;DHT22;16625;53.624;10.106;2022-12-07T23:57:37;0.80;99.90
